Shorter, Alabama
Current Conditions -  °F | °C
As of 3:58 PM on Saturday 25 Oct 2014 (Local Time) from KMXF Reporting Station
Clear Clear  
Wind Chill: 78°   Ceiling: Unl
Heat Index: 78°   Visibility: 10mi
Dew Point: 46°   Wind: 9mph
Humidity: 32%   Direction: 20°NNE
Pressure: 30.03"   Gusts: NA
Location:  32.39°N, 85.92°W
Report Text: KMXF 252058Z AUTO 02008KT 10SM CLR 26/08 A3003 RMK AO2 SLP171 T02550075 57013
Loading
Personal Weather Stations






























Interactive Weather Map
Tropical Storm Tracking
New forecast layout! Learn more

10-Day Weather Forecast

Advertisements
Track Severe Weather on mobile